Time;durP1;ratioP1;P1;durP2;ratioP2;P2;SDS_P1;SDS_P2;PMS_P1;PMS_P2;Temp;Humidity;BMP_temperature;BMP_pressure;BME280_temperature;BME280_humidity;BME280_pressure;Samples;Min_cycle;Max_cycle;Signal;HPM_P1;HPM_P2
2021/11/04 00:00:04;;;;;;;20.17;15.50;;;;;;;4.48;100.00;94487.03;1027684;28;20083;-52
2021/11/04 00:00:36;;;;;;;17.08;15.27;;;;;;;4.52;100.00;94489.41;1031641;28;20520;-51
2021/11/04 00:01:07;;;;;;;22.98;16.95;;;;;;;4.52;100.00;94486.84;1027674;28;20341;-52
2021/11/04 00:01:37;;;;;;;18.42;14.95;;;;;;;4.51;100.00;94495.56;1032600;28;20258;-51
2021/11/04 00:02:08;;;;;;;20.05;16.58;;;;;;;4.54;100.00;94495.31;1032004;28;20022;-51
2021/11/04 00:02:39;;;;;;;22.10;16.70;;;;;;;4.58;100.00;94496.75;1027762;28;20047;-51
2021/11/04 00:03:09;;;;;;;19.92;15.82;;;;;;;4.64;100.00;94496.34;1027622;28;20109;-49
2021/11/04 00:03:41;;;;;;;19.10;15.80;;;;;;;4.61;100.00;94494.78;1024073;28;20568;-51
2021/11/04 00:04:11;;;;;;;16.42;14.32;;;;;;;4.62;100.00;94498.22;1028246;28;20105;-51
2021/11/04 00:04:42;;;;;;;20.17;16.55;;;;;;;4.67;100.00;94498.72;1031715;28;20349;-51
2021/11/04 00:05:13;;;;;;;18.83;16.00;;;;;;;4.65;100.00;94492.81;1031666;28;20427;-50
2021/11/04 00:05:44;;;;;;;19.40;15.57;;;;;;;4.62;100.00;94499.06;1031821;28;20025;-51
2021/11/04 00:06:14;;;;;;;16.42;14.20;;;;;;;4.63;100.00;94494.69;1035124;28;20036;-53
2021/11/04 00:06:45;;;;;;;19.63;16.13;;;;;;;4.66;100.00;94491.88;1031448;28;20284;-49
2021/11/04 00:07:17;;;;;;;20.08;15.90;;;;;;;4.59;100.00;94498.44;1023804;28;20031;-50
2021/11/04 00:07:50;;;;;;;14.90;12.93;;;;;;;4.58;100.00;94495.03;1023614;29;20055;-51
2021/11/04 00:08:23;;;;;;;16.50;13.55;;;;;;;4.60;100.00;94487.13;1023696;29;20396;-51
2021/11/04 00:08:53;;;;;;;16.55;14.35;;;;;;;4.58;100.00;94495.03;1026643;28;20832;-51
2021/11/04 00:09:24;;;;;;;17.98;14.60;;;;;;;4.56;100.00;94491.72;1032485;28;20336;-51
2021/11/04 00:09:55;;;;;;;18.48;15.20;;;;;;;4.61;100.00;94499.16;1037289;28;20060;-52
2021/11/04 00:10:25;;;;;;;16.98;14.32;;;;;;;4.61;100.00;94493.97;1032430;28;20026;-50
2021/11/04 00:10:56;;;;;;;17.10;15.27;;;;;;;4.60;100.00;94487.97;1032013;28;20101;-51
2021/11/04 00:11:27;;;;;;;18.45;14.43;;;;;;;4.56;100.00;94491.72;1035750;28;20587;-51
2021/11/04 00:11:58;;;;;;;17.83;14.82;;;;;;;4.53;100.00;94481.53;1027661;28;20118;-51
2021/11/04 00:12:28;;;;;;;20.83;16.20;;;;;;;4.55;100.00;94489.22;1024674;28;20334;-51
2021/11/04 00:12:59;;;;;;;18.02;14.13;;;;;;;4.47;100.00;94482.81;1029161;28;20042;-50
2021/11/04 00:13:30;;;;;;;17.52;13.93;;;;;;;4.43;100.00;94486.56;1032482;28;20014;-52
2021/11/04 00:14:00;;;;;;;18.45;14.57;;;;;;;4.42;100.00;94484.88;1031554;28;20142;-51
2021/11/04 00:14:31;;;;;;;25.80;17.98;;;;;;;4.42;100.00;94486.66;1027689;28;20045;-52
2021/11/04 00:15:02;;;;;;;16.40;13.65;;;;;;;4.40;100.00;94480.75;1027585;28;20050;-51
2021/11/04 00:15:33;;;;;;;20.55;15.68;;;;;;;4.42;100.00;94486.66;1027934;28;20401;-51
2021/11/04 00:16:08;;;;;;;22.48;16.02;;;;;;;4.42;100.00;94484.88;1023644;29;20259;-52
2021/11/04 00:16:38;;;;;;;30.90;19.67;;;;;;;4.40;100.00;94484.16;1023618;29;20020;-51
2021/11/04 00:17:09;;;;;;;19.40;15.13;;;;;;;4.42;100.00;94481.47;1023716;29;20299;-52
2021/11/04 00:17:40;;;;;;;20.40;16.33;;;;;;;4.45;100.00;94476.91;1028299;28;20019;-51
2021/11/04 00:18:11;;;;;;;21.48;16.80;;;;;;;4.42;100.00;94469.31;1027732;28;20200;-51
2021/11/04 00:18:41;;;;;;;22.92;17.08;;;;;;;4.41;100.00;94465.09;1027526;28;20788;-52
2021/11/04 00:19:12;;;;;;;17.88;15.25;;;;;;;4.46;100.00;94470.75;1023740;28;20031;-51
2021/11/04 00:19:44;;;;;;;19.13;15.07;;;;;;;4.50;100.00;94462.78;1023445;29;20027;-49
2021/11/04 00:20:15;;;;;;;18.85;15.50;;;;;;;4.44;100.00;94461.44;1031461;28;20034;-51
2021/11/04 00:20:46;;;;;;;22.35;17.15;;;;;;;4.44;100.00;94470.03;1039630;28;20264;-49
2021/11/04 00:21:16;;;;;;;21.33;17.35;;;;;;;4.43;100.00;94460.63;1035619;28;20265;-50
2021/11/04 00:21:47;;;;;;;26.02;19.05;;;;;;;4.44;100.00;94466.63;1035646;28;20052;-50
2021/11/04 00:22:18;;;;;;;21.20;17.13;;;;;;;4.43;100.00;94464.94;1031647;28;20038;-51
2021/11/04 00:22:48;;;;;;;20.63;15.93;;;;;;;4.45;100.00;94469.13;1031745;28;20104;-50
2021/11/04 00:23:19;;;;;;;14.68;12.93;;;;;;;4.46;100.00;94470.75;1029156;28;20513;-49
2021/11/04 00:23:51;;;;;;;18.27;14.75;;;;;;;4.44;100.00;94467.44;1031695;28;20026;-52
2021/11/04 00:24:22;;;;;;;21.42;15.07;;;;;;;4.40;100.00;94467.78;1023705;29;20079;-51
2021/11/04 00:24:53;;;;;;;18.23;14.50;;;;;;;4.45;100.00;94474.31;1027865;28;20370;-51
2021/11/04 00:25:23;;;;;;;20.45;15.45;;;;;;;4.43;100.00;94477.91;1027501;28;20023;-52
2021/11/04 00:25:54;;;;;;;15.68;13.98;;;;;;;4.40;100.00;94478.16;1027467;28;20031;-51
2021/11/04 00:26:25;;;;;;;16.92;13.75;;;;;;;4.42;100.00;94477.09;1027514;28;20023;-50
2021/11/04 00:26:56;;;;;;;17.70;15.02;;;;;;;4.43;100.00;94477.91;1031613;28;20516;-52
2021/11/04 00:27:27;;;;;;;17.90;13.25;;;;;;;4.43;100.00;94475.31;1035601;28;20014;-50
2021/11/04 00:27:57;;;;;;;16.13;13.93;;;;;;;4.41;100.00;94478.06;1039657;28;20304;-50
2021/11/04 00:28:28;;;;;;;15.60;13.52;;;;;;;4.39;100.00;94474.75;1035677;28;20101;-51
2021/11/04 00:28:58;;;;;;;18.63;15.63;;;;;;;4.40;100.00;94485.94;1027604;28;20496;-49
2021/11/04 00:29:29;;;;;;;15.02;13.05;;;;;;;4.39;100.00;94482.50;1027653;28;20118;-50
2021/11/04 00:30:00;;;;;;;23.27;17.70;;;;;;;4.38;100.00;94488.63;1031792;28;20021;-51
2021/11/04 00:30:31;;;;;;;23.08;16.63;;;;;;;4.37;100.00;94483.53;1035983;28;20284;-51
2021/11/04 00:31:01;;;;;;;21.45;16.77;;;;;;;4.39;100.00;94485.09;1036712;28;20490;-50
2021/11/04 00:31:32;;;;;;;22.50;18.17;;;;;;;4.41;100.00;94484.97;1032526;28;20030;-52
2021/11/04 00:32:03;;;;;;;19.15;14.73;;;;;;;4.43;100.00;94483.09;1024229;28;20027;-51
2021/11/04 00:32:34;;;;;;;16.63;13.75;;;;;;;4.43;100.00;94486.56;1028357;28;20582;-52
2021/11/04 00:33:05;;;;;;;21.67;16.45;;;;;;;4.39;100.00;94474.75;1024190;29;20306;-51
2021/11/04 00:33:36;;;;;;;15.25;13.02;;;;;;;4.40;100.00;94481.56;1028979;28;20023;-51
2021/11/04 00:34:07;;;;;;;18.73;14.75;;;;;;;4.44;100.00;94483.00;1036467;28;20018;-50
2021/11/04 00:34:38;;;;;;;20.40;15.85;;;;;;;4.51;100.00;94491.19;1032585;28;20364;-51
2021/11/04 00:35:08;;;;;;;19.80;15.65;;;;;;;4.51;100.00;94490.38;1028639;28;20045;-51
2021/11/04 00:35:39;;;;;;;21.83;16.95;;;;;;;4.49;100.00;94493.06;1028445;28;20077;-52
2021/11/04 00:36:10;;;;;;;19.45;15.50;;;;;;;4.46;100.00;94490.69;1028445;28;20022;-50
2021/11/04 00:36:41;;;;;;;17.17;14.55;;;;;;;4.50;100.00;94492.13;1028547;28;20018;-50
2021/11/04 00:37:11;;;;;;;20.13;15.75;;;;;;;4.45;100.00;94489.88;1036792;28;20022;-51
2021/11/04 00:37:42;;;;;;;20.83;16.00;;;;;;;4.51;100.00;94492.97;1036653;28;20778;-52
2021/11/04 00:38:13;;;;;;;22.00;16.67;;;;;;;4.51;100.00;94488.59;1032634;28;20014;-51
2021/11/04 00:38:46;;;;;;;18.25;14.65;;;;;;;4.54;100.00;94493.56;1028315;28;20286;-51
2021/11/04 00:39:17;;;;;;;14.13;12.57;;;;;;;4.58;100.00;94479.47;1024339;29;20011;-51
2021/11/04 00:39:48;;;;;;;14.98;12.65;;;;;;;4.62;100.00;94480.91;1028809;28;20356;-51
2021/11/04 00:40:20;;;;;;;17.83;13.90;;;;;;;4.63;100.00;94476.53;1027126;28;20845;-50
2021/11/04 00:40:51;;;;;;;20.42;15.85;;;;;;;4.65;100.00;94475.50;1024201;29;20401;-51
2021/11/04 00:41:22;;;;;;;17.70;14.80;;;;;;;4.69;100.00;94478.69;1028080;28;20259;-51
2021/11/04 00:41:52;;;;;;;16.90;13.68;;;;;;;4.72;100.00;94483.66;1032345;28;20273;-52
2021/11/04 00:42:23;;;;;;;14.38;12.82;;;;;;;4.68;100.00;94477.03;1032450;28;20468;-52
2021/11/04 00:42:53;;;;;;;18.30;14.63;;;;;;;4.64;100.00;94489.41;1023951;29;20054;-51
2021/11/04 00:43:24;;;;;;;17.25;14.48;;;;;;;4.63;100.00;94484.31;1024442;28;20047;-51
2021/11/04 00:43:56;;;;;;;13.68;12.13;;;;;;;4.62;100.00;94487.84;1024580;29;20026;-49
2021/11/04 00:44:27;;;;;;;16.33;13.70;;;;;;;4.60;100.00;94492.34;1024919;29;20023;-52
2021/11/04 00:44:58;;;;;;;17.15;14.70;;;;;;;4.60;100.00;94497.50;1029095;28;20786;-51
2021/11/04 00:45:29;;;;;;;17.08;14.52;;;;;;;4.60;100.00;94497.50;1025315;29;20059;-53
2021/11/04 00:45:59;;;;;;;16.52;14.73;;;;;;;4.60;100.00;94498.34;1024800;29;20027;-49
2021/11/04 00:46:30;;;;;;;14.68;12.70;;;;;;;4.61;100.00;94493.97;1028378;28;20416;-51
2021/11/04 00:47:01;;;;;;;13.75;11.70;;;;;;;4.63;100.00;94494.69;1032162;28;20025;-51
2021/11/04 00:47:32;;;;;;;14.75;12.15;;;;;;;4.66;100.00;94494.47;1024383;29;20365;-50
2021/11/04 00:48:38;;;;;;;14.60;12.32;;;;;;;4.63;100.00;94503.28;1044667;23;20051;-51
2021/11/04 00:49:09;;;;;;;15.98;12.10;;;;;;;4.64;100.00;94494.59;1022538;29;21063;-51
2021/11/04 00:49:40;;;;;;;13.82;11.82;;;;;;;4.63;100.00;94499.88;1019504;29;20020;-51
2021/11/04 00:50:10;;;;;;;14.02;12.50;;;;;;;4.67;100.00;94501.31;1020239;29;20074;-51
2021/11/04 00:50:41;;;;;;;14.95;13.35;;;;;;;4.70;100.00;94498.50;1016319;29;20020;-52
2021/11/04 00:51:12;;;;;;;14.38;12.77;;;;;;;4.75;100.00;94496.44;1016494;29;20102;-52
2021/11/04 00:51:43;;;;;;;14.60;11.73;;;;;;;4.70;100.00;94497.69;1020205;29;20106;-51
2021/11/04 00:52:14;;;;;;;14.88;12.30;;;;;;;4.68;100.00;94496.03;1020215;29;20110;-52
2021/11/04 00:52:44;;;;;;;13.55;12.13;;;;;;;4.65;100.00;94495.41;1022636;29;20029;-51
2021/11/04 00:53:15;;;;;;;13.65;11.73;;;;;;;4.66;100.00;94491.88;1024305;28;20302;-51
2021/11/04 00:53:46;;;;;;;14.70;12.23;;;;;;;4.62;100.00;94491.28;1020582;29;20110;-50
2021/11/04 00:54:16;;;;;;;15.30;11.65;;;;;;;4.63;100.00;94500.69;1028282;28;20027;-51
2021/11/04 00:54:47;;;;;;;14.60;12.35;;;;;;;4.56;100.00;94498.66;1020047;29;20079;-51
2021/11/04 00:55:18;;;;;;;18.95;12.48;;;;;;;4.52;100.00;94503.22;1012381;29;20072;-52
2021/11/04 00:55:51;;;;;;;14.90;12.68;;;;;;;4.56;100.00;94493.47;1020343;29;20276;-50
2021/11/04 00:56:22;;;;;;;13.95;11.50;;;;;;;4.59;100.00;94501.84;1017337;29;20067;-51
2021/11/04 00:56:52;;;;;;;13.35;11.65;;;;;;;4.62;100.00;94493.03;1024496;28;20278;-51
2021/11/04 00:57:23;;;;;;;16.67;13.85;;;;;;;4.66;100.00;94490.13;1024114;29;20114;-51
2021/11/04 00:57:54;;;;;;;17.90;14.07;;;;;;;4.65;100.00;94493.66;1020186;29;20417;-51
2021/11/04 00:58:24;;;;;;;23.33;16.55;;;;;;;4.66;100.00;94481.50;1012278;29;20036;-51
2021/11/04 00:58:55;;;;;;;22.95;17.08;;;;;;;4.70;100.00;94490.72;1020113;29;20425;-51
2021/11/04 00:59:26;;;;;;;23.52;16.45;;;;;;;4.64;100.00;94489.41;1020365;29;20470;-51
2021/11/04 00:59:57;;;;;;;19.52;15.43;;;;;;;4.62;100.00;94487.84;1024487;28;20031;-50
2021/11/04 01:00:27;;;;;;;18.55;13.98;;;;;;;4.59;100.00;94482.88;1032285;28;20081;-53
2021/11/04 01:00:58;;;;;;;20.13;15.38;;;;;;;4.57;100.00;94488.16;1028104;28;20023;-51
2021/11/04 01:01:29;;;;;;;21.33;16.00;;;;;;;4.58;100.00;94482.06;1024084;29;20031;-51
2021/11/04 01:01:59;;;;;;;21.55;16.38;;;;;;;4.51;100.00;94485.19;1024315;28;20022;-53
2021/11/04 01:02:30;;;;;;;20.98;16.98;;;;;;;4.58;100.00;94486.38;1024263;28;20042;-51
2021/11/04 01:03:01;;;;;;;22.77;15.65;;;;;;;4.64;100.00;94480.78;1019996;29;20043;-50
2021/11/04 01:03:32;;;;;;;16.17;14.40;;;;;;;4.62;100.00;94483.50;1024176;29;20090;-54
2021/11/04 01:04:03;;;;;;;19.83;15.68;;;;;;;4.62;100.00;94485.25;1024479;28;20086;-51
2021/11/04 01:04:34;;;;;;;17.95;14.40;;;;;;;4.70;100.00;94482.13;1028810;28;20324;-51
2021/11/04 01:05:05;;;;;;;13.98;12.48;;;;;;;4.73;100.00;94481.88;1032031;28;20467;-51
2021/11/04 01:05:35;;;;;;;20.30;15.65;;;;;;;4.60;100.00;94484.53;1024039;29;20019;-54
2021/11/04 01:06:06;;;;;;;15.75;13.63;;;;;;;4.67;100.00;94480.56;1020191;29;20114;-51
2021/11/04 01:06:37;;;;;;;14.07;12.45;;;;;;;4.70;100.00;94482.13;1028041;28;20062;-51
2021/11/04 01:07:07;;;;;;;15.82;12.55;;;;;;;4.70;100.00;94479.53;1028072;28;20053;-51
2021/11/04 01:07:38;;;;;;;19.70;14.85;;;;;;;4.59;100.00;94482.88;1028051;28;20047;-52
2021/11/04 01:08:11;;;;;;;17.33;14.52;;;;;;;4.62;100.00;94480.06;1028136;28;20084;-51
2021/11/04 01:08:42;;;;;;;15.70;13.93;;;;;;;4.57;100.00;94480.38;1023975;29;20421;-53
2021/11/04 01:09:13;;;;;;;13.07;11.73;;;;;;;4.66;100.00;94476.31;1016766;29;20608;-52
2021/11/04 01:09:43;;;;;;;15.13;12.40;;;;;;;4.66;100.00;94479.75;1020641;29;20310;-51
2021/11/04 01:10:14;;;;;;;12.80;11.35;;;;;;;4.66;100.00;94477.16;1020529;28;20015;-52
2021/11/04 01:10:45;;;;;;;15.15;12.13;;;;;;;4.67;100.00;94480.56;1024238;28;20118;-50
2021/11/04 01:11:16;;;;;;;12.10;10.50;;;;;;;4.59;100.00;94482.88;1024094;29;20019;-51
2021/11/04 01:11:47;;;;;;;15.48;10.63;;;;;;;4.66;100.00;94489.28;1020538;29;20036;-49
2021/11/04 01:12:18;;;;;;;13.93;11.35;;;;;;;4.64;100.00;94491.16;1024547;28;20270;-51
2021/11/04 01:12:51;;;;;;;13.35;10.75;;;;;;;4.62;100.00;94490.44;1020005;29;20055;-51
2021/11/04 01:13:23;;;;;;;12.43;10.40;;;;;;;4.55;100.00;94499.59;1023922;29;20298;-51
2021/11/04 01:13:53;;;;;;;12.95;10.13;;;;;;;4.56;100.00;94498.66;1024098;29;20270;-51
2021/11/04 01:14:24;;;;;;;10.63;9.25;;;;;;;4.58;100.00;94494.16;1020074;29;20346;-51
2021/11/04 01:14:55;;;;;;;11.23;9.57;;;;;;;4.61;100.00;94506.94;1016206;29;20058;-51
2021/11/04 01:15:25;;;;;;;11.07;9.70;;;;;;;4.58;100.00;94507.16;1016017;29;20035;-51
2021/11/04 01:15:56;;;;;;;12.63;10.15;;;;;;;4.58;100.00;94502.81;1020193;29;20029;-53
2021/11/04 01:16:27;;;;;;;12.25;9.00;;;;;;;4.61;100.00;94502.56;1020227;29;20051;-50
2021/11/04 01:16:58;;;;;;;11.73;9.70;;;;;;;4.62;100.00;94503.41;1016196;29;20032;-51
2021/11/04 01:17:30;;;;;;;11.77;9.52;;;;;;;4.59;100.00;94501.03;1016004;29;20031;-52
2021/11/04 01:18:01;;;;;;;15.52;9.63;;;;;;;4.57;100.00;94502.91;1028021;28;20026;-51
2021/11/04 01:18:31;;;;;;;10.75;9.32;;;;;;;4.57;100.00;94501.13;1023982;28;20274;-51
2021/11/04 01:19:02;;;;;;;13.20;9.57;;;;;;;4.59;100.00;94493.25;1028148;28;20031;-54
2021/11/04 01:19:33;;;;;;;11.60;9.98;;;;;;;4.56;100.00;94504.69;1019899;29;20020;-54
2021/11/04 01:20:04;;;;;;;10.60;9.02;;;;;;;4.54;100.00;94492.75;1024067;29;20440;-51
2021/11/04 01:20:35;;;;;;;11.73;10.48;;;;;;;4.55;100.00;94486.63;1024412;28;20254;-51
2021/11/04 01:21:06;;;;;;;10.73;9.57;;;;;;;4.56;100.00;94490.88;1020348;29;20334;-50
2021/11/04 01:21:36;;;;;;;13.23;10.02;;;;;;;4.52;100.00;94489.41;1016457;29;20080;-52
2021/11/04 01:22:07;;;;;;;12.70;9.88;;;;;;;4.53;100.00;94489.31;1020175;29;20030;-51
2021/11/04 01:22:38;;;;;;;13.35;10.73;;;;;;;4.54;100.00;94488.38;1018323;29;20024;-51
2021/11/04 01:23:09;;;;;;;12.52;8.90;;;;;;;4.63;100.00;94486.91;1016147;29;20747;-51
2021/11/04 01:23:40;;;;;;;9.55;8.30;;;;;;;4.67;100.00;94480.56;1012234;29;20406;-51
2021/11/04 01:24:11;;;;;;;11.15;8.40;;;;;;;4.66;100.00;94479.75;1012370;29;20025;-53
2021/11/04 01:24:41;;;;;;;9.70;7.88;;;;;;;4.63;100.00;94479.13;1012203;29;20510;-51
2021/11/04 01:25:12;;;;;;;9.32;7.90;;;;;;;4.63;100.00;94489.50;1020247;29;20291;-51
2021/11/04 01:25:42;;;;;;;9.30;8.30;;;;;;;4.67;100.00;94476.22;1020158;29;20019;-53
2021/11/04 01:26:13;;;;;;;9.18;8.13;;;;;;;4.66;100.00;94479.75;1020440;28;20163;-52
2021/11/04 01:26:44;;;;;;;11.00;8.30;;;;;;;4.65;100.00;94483.28;1024247;28;20135;-51
2021/11/04 01:27:14;;;;;;;8.40;7.28;;;;;;;4.64;100.00;94488.56;1020114;29;20122;-54
2021/11/04 01:27:45;;;;;;;10.10;8.82;;;;;;;4.61;100.00;94481.00;1012116;29;20052;-52
2021/11/04 01:28:17;;;;;;;9.25;8.25;;;;;;;4.57;100.00;94482.97;1008323;29;20021;-50
2021/11/04 01:28:48;;;;;;;9.98;8.40;;;;;;;4.62;100.00;94486.09;1012425;29;20559;-49
2021/11/04 01:29:19;;;;;;;9.80;8.70;;;;;;;4.60;100.00;94487.13;1016421;29;20287;-54
2021/11/04 01:29:49;;;;;;;10.90;8.18;;;;;;;4.62;100.00;94491.28;1012155;29;20031;-51
2021/11/04 01:30:20;;;;;;;9.55;8.15;;;;;;;4.62;100.00;94490.44;1012272;29;20029;-50
2021/11/04 01:30:50;;;;;;;10.93;8.10;;;;;;;4.60;100.00;94489.72;1012412;29;20059;-54
2021/11/04 01:31:21;;;;;;;9.38;7.82;;;;;;;4.59;100.00;94490.66;1016326;29;20064;-52
2021/11/04 01:31:52;;;;;;;11.40;7.90;;;;;;;4.59;100.00;94493.25;1020279;29;20031;-51
2021/11/04 01:32:23;;;;;;;10.07;7.80;;;;;;;4.60;100.00;94487.97;1023974;29;20413;-53
2021/11/04 01:32:53;;;;;;;9.00;7.45;;;;;;;4.55;100.00;94484.84;1024116;28;20389;-51
2021/11/04 01:33:24;;;;;;;8.43;7.50;;;;;;;4.55;100.00;94487.44;1020227;29;20106;-51
2021/11/04 01:33:55;;;;;;;10.38;7.55;;;;;;;4.51;100.00;94493.78;1019941;29;20034;-51
2021/11/04 01:34:26;;;;;;;9.52;8.40;;;;;;;4.50;100.00;94486.13;1019843;29;20366;-51
2021/11/04 01:34:57;;;;;;;9.43;7.97;;;;;;;4.50;100.00;94486.13;1020645;28;20058;-50
2021/11/04 01:35:30;;;;;;;12.18;9.10;;;;;;;4.54;100.00;94487.53;1028050;28;20512;-52
2021/11/04 01:36:01;;;;;;;11.50;8.18;;;;;;;4.53;100.00;94478.13;1024055;29;20413;-51
2021/11/04 01:36:32;;;;;;;10.15;8.40;;;;;;;4.54;100.00;94477.19;1019981;29;20302;-51
2021/11/04 01:37:02;;;;;;;9.98;7.80;;;;;;;4.57;100.00;94474.38;1016741;29;20056;-51
2021/11/04 01:37:34;;;;;;;8.18;7.28;;;;;;;4.59;100.00;94472.50;1020111;29;20034;-51
2021/11/04 01:38:05;;;;;;;9.02;7.47;;;;;;;4.59;100.00;94473.31;1020379;29;20054;-50
2021/11/04 01:38:36;;;;;;;10.55;7.90;;;;;;;4.62;100.00;94472.28;1019799;29;20777;-51
2021/11/04 01:39:07;;;;;;;11.38;8.25;;;;;;;4.59;100.00;94469.91;1019980;29;20275;-50
2021/11/04 01:39:37;;;;;;;9.60;7.55;;;;;;;4.54;100.00;94469.41;1020431;29;20079;-51
2021/11/04 01:40:09;;;;;;;10.55;9.07;;;;;;;4.50;100.00;94466.19;1024063;28;20097;-50
2021/11/04 01:40:40;;;;;;;10.05;8.05;;;;;;;4.59;100.00;94464.72;1023841;28;20030;-52
2021/11/04 01:41:10;;;;;;;9.20;7.05;;;;;;;4.67;100.00;94467.59;1024080;28;20267;-50
2021/11/04 01:41:41;;;;;;;8.90;7.65;;;;;;;4.72;100.00;94465.50;1015913;29;20280;-50
2021/11/04 01:42:12;;;;;;;7.53;6.35;;;;;;;4.71;100.00;94463.88;1012655;29;20021;-51
2021/11/04 01:42:42;;;;;;;9.75;7.10;;;;;;;4.62;100.00;94460.16;1019882;29;20071;-50
2021/11/04 01:43:13;;;;;;;9.23;7.50;;;;;;;4.60;100.00;94468.97;1015857;29;20028;-51
2021/11/04 01:43:44;;;;;;;7.82;6.55;;;;;;;4.64;100.00;94467.81;1012195;29;20432;-51
2021/11/04 01:44:14;;;;;;;7.47;5.97;;;;;;;4.67;100.00;94465.00;1016104;29;20028;-51
2021/11/04 01:44:45;;;;;;;8.18;5.68;;;;;;;4.61;100.00;94468.03;1012321;29;20032;-50
2021/11/04 01:45:16;;;;;;;7.05;6.10;;;;;;;4.61;100.00;94466.25;1016880;28;20028;-51
2021/11/04 01:45:48;;;;;;;7.43;6.25;;;;;;;4.59;100.00;94472.50;1016130;29;20024;-49
2021/11/04 01:46:20;;;;;;;7.50;6.53;;;;;;;4.58;100.00;94470.81;1015953;29;20359;-51
2021/11/04 01:46:51;;;;;;;7.20;6.22;;;;;;;4.56;100.00;94478.75;1016143;29;20307;-51
2021/11/04 01:47:22;;;;;;;7.15;5.35;;;;;;;4.58;100.00;94479.47;1019924;29;20264;-51
2021/11/04 01:47:53;;;;;;;8.63;6.72;;;;;;;4.62;100.00;94487.84;1020028;29;20520;-50
2021/11/04 01:48:24;;;;;;;9.60;6.50;;;;;;;4.61;100.00;94481.00;1015710;29;20072;-51
2021/11/04 01:48:54;;;;;;;8.50;5.95;;;;;;;4.58;100.00;94481.19;1016303;29;20280;-51
2021/11/04 01:49:25;;;;;;;8.18;6.35;;;;;;;4.60;100.00;94482.78;1016020;29;20127;-51
2021/11/04 01:49:57;;;;;;;9.55;6.03;;;;;;;4.52;100.00;94481.63;1016022;29;20040;-50
2021/11/04 01:50:28;;;;;;;6.88;5.63;;;;;;;4.52;100.00;94487.66;1012277;29;20016;-51
2021/11/04 01:50:59;;;;;;;8.07;6.70;;;;;;;4.56;100.00;94478.75;1012325;29;20273;-51
2021/11/04 01:51:29;;;;;;;7.30;6.38;;;;;;;4.51;100.00;94480.81;1020786;28;20016;-51
2021/11/04 01:52:00;;;;;;;6.72;5.63;;;;;;;4.55;100.00;94484.03;1019999;29;20019;-49
2021/11/04 01:52:31;;;;;;;8.30;5.20;;;;;;;4.53;100.00;94480.72;1020099;29;20071;-50
2021/11/04 01:53:02;;;;;;;8.68;6.10;;;;;;;4.59;100.00;94485.47;1023678;28;20258;-54
2021/11/04 01:53:32;;;;;;;7.35;5.93;;;;;;;4.60;100.00;94485.38;1023879;29;20019;-50
2021/11/04 01:54:03;;;;;;;8.10;5.75;;;;;;;4.56;100.00;94486.53;1016129;29;20099;-51
2021/11/04 01:54:34;;;;;;;7.85;6.20;;;;;;;4.59;100.00;94488.88;1016144;29;20103;-53
2021/11/04 01:55:05;;;;;;;6.95;5.13;;;;;;;4.65;100.00;94488.47;1016506;29;20478;-50
2021/11/04 01:55:36;;;;;;;6.75;5.20;;;;;;;4.61;100.00;94491.38;1024288;28;20259;-53
2021/11/04 01:56:06;;;;;;;7.07;5.18;;;;;;;4.55;100.00;94492.63;1024277;28;20026;-51
2021/11/04 01:56:38;;;;;;;7.35;5.22;;;;;;;4.50;100.00;94496.50;1024505;28;20019;-51
2021/11/04 01:57:08;;;;;;;6.70;5.50;;;;;;;4.55;100.00;94497.81;1027891;28;20058;-51
2021/11/04 01:57:39;;;;;;;6.03;4.93;;;;;;;4.53;100.00;94498.88;1023909;29;20263;-51
2021/11/04 01:58:10;;;;;;;7.75;5.13;;;;;;;4.49;100.00;94490.47;1024123;28;20474;-50
2021/11/04 01:58:40;;;;;;;6.40;4.88;;;;;;;4.48;100.00;94494.81;1023981;29;20019;-51
2021/11/04 01:59:11;;;;;;;6.90;5.38;;;;;;;4.53;100.00;94501.47;1024161;28;20015;-50
2021/11/04 01:59:42;;;;;;;6.80;5.05;;;;;;;4.55;100.00;94489.22;1027974;28;20011;-54
2021/11/04 02:00:14;;;;;;;6.22;4.80;;;;;;;4.53;100.00;94494.50;1020137;29;20724;-51
2021/11/04 02:00:44;;;;;;;9.07;4.90;;;;;;;4.52;100.00;94494.63;1023936;29;20041;-51
2021/11/04 02:01:16;;;;;;;7.10;5.15;;;;;;;4.55;100.00;94499.59;1024141;28;20285;-50
2021/11/04 02:02:07;;;;;;;8.35;4.88;;;;;;;4.51;100.00;94486.00;1024393;28;20019;-49
2021/11/04 02:02:44;;;;;;;6.95;4.90;;;;;;;4.50;100.00;94489.53;1026929;28;20277;-53
2021/11/04 02:03:38;;;;;;;7.60;4.70;;;;;;;4.46;100.00;94483.72;1023575;29;20298;-53
2021/11/04 02:04:21;;;;;;;5.65;4.30;;;;;;;4.50;100.00;94492.13;1021476;29;20270;-51
2021/11/04 02:04:58;;;;;;;7.35;4.32;;;;;;;4.49;100.00;94490.47;1024631;28;20267;-51
2021/11/04 02:05:38;;;;;;;5.97;4.10;;;;;;;4.52;100.00;94499.78;1024865;28;20273;-52
2021/11/04 02:06:22;;;;;;;6.30;4.57;;;;;;;4.43;100.00;94491.75;1027832;28;20247;-50
2021/11/04 02:07:02;;;;;;;5.97;4.03;;;;;;;4.45;100.00;94495.03;1023935;28;20271;-51
2021/11/04 02:07:49;;;;;;;6.00;4.20;;;;;;;4.45;100.00;94496.81;1027914;28;20282;-51
2021/11/04 02:08:23;;;;;;;5.90;3.75;;;;;;;4.44;100.00;94503.75;1024789;28;20030;-50
2021/11/04 02:09:17;;;;;;;6.32;3.47;;;;;;;4.38;100.00;94495.59;1027850;28;20366;-51
2021/11/04 02:09:47;;;;;;;4.90;3.65;;;;;;;4.39;100.00;94498.06;1023811;29;20297;-48
2021/11/04 02:10:25;;;;;;;5.20;3.40;;;;;;;4.40;100.00;94494.53;1020041;29;20925;-51
2021/11/04 02:11:04;;;;;;;5.97;3.17;;;;;;;4.37;100.00;94491.31;1020056;29;20087;-50
2021/11/04 02:11:42;;;;;;;4.15;2.92;;;;;;;4.40;100.00;94493.72;1019785;29;20710;-50
2021/11/04 02:12:35;;;;;;;4.30;2.92;;;;;;;4.35;100.00;94488.81;1023230;29;20903;-53
2021/11/04 02:13:12;;;;;;;3.88;2.40;;;;;;;4.36;100.00;94495.69;1027727;28;20269;-50
2021/11/04 02:14:01;;;;;;;4.65;2.67;;;;;;;4.36;100.00;94495.69;1031752;28;20281;-51
2021/11/04 02:14:37;;;;;;;4.63;2.63;;;;;;;4.35;100.00;94496.59;1031957;28;20268;-51
2021/11/04 02:15:07;;;;;;;4.13;2.35;;;;;;;4.27;100.00;94496.31;1023945;29;20297;-51
2021/11/04 02:15:40;;;;;;;4.45;2.22;;;;;;;4.30;100.00;94501.31;1026275;28;20683;-51
2021/11/04 02:16:11;;;;;;;3.85;2.20;;;;;;;4.26;100.00;94499.81;1023879;29;20047;-52
2021/11/04 02:16:41;;;;;;;4.35;2.60;;;;;;;4.23;100.00;94490.50;1019810;29;20359;-51
2021/11/04 02:17:12;;;;;;;4.22;2.58;;;;;;;4.27;100.00;94502.31;1023733;29;20033;-49
2021/11/04 02:17:43;;;;;;;5.88;2.40;;;;;;;4.26;100.00;94503.28;1027689;28;20027;-51
2021/11/04 02:18:14;;;;;;;4.15;2.30;;;;;;;4.29;100.00;94495.25;1027711;28;20034;-51
2021/11/04 02:18:45;;;;;;;4.10;2.50;;;;;;;4.33;100.00;94510.63;1020078;29;20294;-50
2021/11/04 02:19:40;;;;;;;4.75;2.10;;;;;;;4.31;100.00;94502.94;1015952;29;20024;-51
2021/11/04 02:20:11;;;;;;;3.40;2.22;;;;;;;4.29;100.00;94503.03;1015884;29;20118;-50
2021/11/04 02:20:48;;;;;;;5.10;2.42;;;;;;;4.27;100.00;94504.09;1023019;29;20255;-51
2021/11/04 02:21:26;;;;;;;3.40;2.00;;;;;;;4.29;100.00;94502.22;1031937;28;20023;-50
2021/11/04 02:21:59;;;;;;;3.72;2.20;;;;;;;4.27;100.00;94494.53;1027866;28;20285;-53
2021/11/04 02:22:55;;;;;;;4.32;2.50;;;;;;;4.25;100.00;94496.41;1027811;28;20262;-51
2021/11/04 02:23:32;;;;;;;4.22;2.10;;;;;;;4.32;100.00;94499.44;1027915;28;20709;-51
2021/11/04 02:24:23;;;;;;;4.18;2.35;;;;;;;4.31;100.00;94502.94;1023847;29;20349;-50
2021/11/04 02:25:15;;;;;;;5.65;2.38;;;;;;;4.32;100.00;94491.66;1019875;29;20282;-51
2021/11/04 02:25:46;;;;;;;3.20;2.08;;;;;;;4.31;100.00;94494.34;1025444;28;20334;-48
2021/11/04 02:26:17;;;;;;;3.83;2.25;;;;;;;4.28;100.00;94491.03;1023687;29;20778;-50
2021/11/04 02:26:48;;;;;;;3.17;2.08;;;;;;;4.28;100.00;94492.81;1019841;29;20083;-50
2021/11/04 02:27:18;;;;;;;3.95;2.22;;;;;;;4.26;100.00;94485.13;1016009;29;20024;-51
2021/11/04 02:27:52;;;;;;;3.85;1.90;;;;;;;4.29;100.00;94484.91;1016218;29;20284;-50
2021/11/04 02:28:22;;;;;;;4.70;2.13;;;;;;;4.25;100.00;94490.41;1027510;28;20034;-51
2021/11/04 02:28:53;;;;;;;3.33;2.10;;;;;;;4.21;100.00;94488.97;1023722;29;20293;-53
2021/11/04 02:29:24;;;;;;;3.55;2.20;;;;;;;4.25;100.00;94485.22;1012037;29;20024;-51